KJOT/JOT METAR and TAF weather

Enter ICAO airport designator
Station Type Date Time Source
KJOT METAR 2019/04/21 21:55 UTC NOAA

KJOT 212155Z AUTO 15010G14KT 10SM CLR 26/04 A2997 RMK AO2 T02580040


Station Type Date Time Source
KJOT Decoded METAR 2019/04/21 21:55 UTC NOAA

Joliet, Joliet Regional Airport, IL, United States (KJOT) 41-31-05N 088-10-31W
Apr 21, 2019 - 05:55 PM EDT / 2019.04.21 2155 UTC
Wind: from the SSE (150 degrees) at 12 MPH (10 KT) gusting to 16 MPH (14 KT):0
Visibility: 10 mile(s):0
Sky conditions: clear
Temperature: 78.4 F (25.8 C)
Dew Point: 39.2 F (4.0 C)
Relative Humidity: 24%
Pressure (altimeter): 29.97 in. Hg (1014 hPa)
ob: KJOT 212155Z AUTO 15010G14KT 10SM CLR 26/04 A2997 RMK AO2 T02580040
cycle: 22

Station Type Date Time Source
KJOT TAF UTC NOAA

Error!

Example: see airport list